sensor_id;sensor_type;location;lat;lon;timestamp;temperature;humidity
18101;DHT22;9177;49.156;8.142;2022-10-01T00:01:16;19.70;99.90
18101;DHT22;9177;49.156;8.142;2022-10-01T00:03:43;19.60;99.90
18101;DHT22;9177;49.156;8.142;2022-10-01T00:06:12;19.60;99.90
18101;DHT22;9177;49.156;8.142;2022-10-01T00:08:41;19.60;99.90
18101;DHT22;9177;49.156;8.142;2022-10-01T00:11:10;19.60;99.90
18101;DHT22;9177;49.156;8.142;2022-10-01T00:13:39;19.60;99.90
18101;DHT22;9177;49.156;8.142;2022-10-01T00:16:09;19.60;99.90
18101;DHT22;9177;49.156;8.142;2022-10-01T00:18:38;19.60;99.90
18101;DHT22;9177;49.156;8.142;2022-10-01T00:21:06;19.60;99.90
18101;DHT22;9177;49.156;8.142;2022-10-01T00:23:33;19.60;99.90
18101;DHT22;9177;49.156;8.142;2022-10-01T00:26:10;19.60;99.90
18101;DHT22;9177;49.156;8.142;2022-10-01T00:28:38;19.60;99.90
18101;DHT22;9177;49.156;8.142;2022-10-01T00:31:06;19.60;99.90
18101;DHT22;9177;49.156;8.142;2022-10-01T00:33:33;19.60;99.90
18101;DHT22;9177;49.156;8.142;2022-10-01T00:36:02;19.60;99.90
18101;DHT22;9177;49.156;8.142;2022-10-01T00:38:30;19.60;99.90
18101;DHT22;9177;49.156;8.142;2022-10-01T00:40:57;19.60;99.90
18101;DHT22;9177;49.156;8.142;2022-10-01T00:43:25;19.60;99.90
18101;DHT22;9177;49.156;8.142;2022-10-01T00:45:56;19.60;99.90
18101;DHT22;9177;49.156;8.142;2022-10-01T00:48:24;19.60;99.90
18101;DHT22;9177;49.156;8.142;2022-10-01T00:50:52;19.60;99.90
18101;DHT22;9177;49.156;8.142;2022-10-01T00:53:20;19.60;99.90
18101;DHT22;9177;49.156;8.142;2022-10-01T00:55:50;19.60;99.90
18101;DHT22;9177;49.156;8.142;2022-10-01T00:58:21;19.60;99.90
18101;DHT22;9177;49.156;8.142;2022-10-01T01:00:49;19.50;99.90
18101;DHT22;9177;49.156;8.142;2022-10-01T01:03:17;19.50;99.90
18101;DHT22;9177;49.156;8.142;2022-10-01T01:05:43;19.50;99.90
18101;DHT22;9177;49.156;8.142;2022-10-01T01:08:13;19.50;99.90
18101;DHT22;9177;49.156;8.142;2022-10-01T01:10:48;19.50;99.90
18101;DHT22;9177;49.156;8.142;2022-10-01T01:13:20;19.50;99.90
18101;DHT22;9177;49.156;8.142;2022-10-01T01:15:54;19.50;99.90
18101;DHT22;9177;49.156;8.142;2022-10-01T01:18:29;19.50;99.90
18101;DHT22;9177;49.156;8.142;2022-10-01T01:21:14;19.50;99.90
18101;DHT22;9177;49.156;8.142;2022-10-01T01:26:59;19.50;99.90
18101;DHT22;9177;49.156;8.142;2022-10-01T01:29:35;19.50;99.90
18101;DHT22;9177;49.156;8.142;2022-10-01T01:32:09;19.50;99.90
18101;DHT22;9177;49.156;8.142;2022-10-01T01:34:40;19.50;99.90
18101;DHT22;9177;49.156;8.142;2022-10-01T01:37:10;19.50;99.90
18101;DHT22;9177;49.156;8.142;2022-10-01T01:39:42;19.50;99.90
18101;DHT22;9177;49.156;8.142;2022-10-01T01:42:13;19.50;99.90
18101;DHT22;9177;49.156;8.142;2022-10-01T01:44:44;19.50;99.90
18101;DHT22;9177;49.156;8.142;2022-10-01T01:47:19;19.50;99.90
18101;DHT22;9177;49.156;8.142;2022-10-01T01:49:48;19.50;99.90
18101;DHT22;9177;49.156;8.142;2022-10-01T01:52:16;19.50;99.90
18101;DHT22;9177;49.156;8.142;2022-10-01T01:54:44;19.50;99.90
18101;DHT22;9177;49.156;8.142;2022-10-01T01:57:13;19.50;99.90
18101;DHT22;9177;49.156;8.142;2022-10-01T01:59:43;19.50;99.90
18101;DHT22;9177;49.156;8.142;2022-10-01T02:02:11;19.50;99.90
18101;DHT22;9177;49.156;8.142;2022-10-01T02:04:41;19.50;99.90
18101;DHT22;9177;49.156;8.142;2022-10-01T02:07:27;19.50;99.90
18101;DHT22;9177;49.156;8.142;2022-10-01T02:10:08;19.50;99.90
18101;DHT22;9177;49.156;8.142;2022-10-01T02:12:45;19.50;99.90
18101;DHT22;9177;49.156;8.142;2022-10-01T02:15:21;19.50;99.90
18101;DHT22;9177;49.156;8.142;2022-10-01T02:17:57;19.50;99.90
18101;DHT22;9177;49.156;8.142;2022-10-01T02:20:28;19.50;99.90
18101;DHT22;9177;49.156;8.142;2022-10-01T02:22:59;19.50;99.90
18101;DHT22;9177;49.156;8.142;2022-10-01T02:25:39;19.50;99.90
18101;DHT22;9177;49.156;8.142;2022-10-01T02:28:10;19.40;99.90
18101;DHT22;9177;49.156;8.142;2022-10-01T02:30:40;19.40;99.90
18101;DHT22;9177;49.156;8.142;2022-10-01T02:33:10;19.40;99.90
18101;DHT22;9177;49.156;8.142;2022-10-01T02:35:44;19.50;99.90
18101;DHT22;9177;49.156;8.142;2022-10-01T02:38:14;19.40;99.90
18101;DHT22;9177;49.156;8.142;2022-10-01T02:40:43;19.40;99.90
18101;DHT22;9177;49.156;8.142;2022-10-01T02:43:14;19.40;99.90
18101;DHT22;9177;49.156;8.142;2022-10-01T02:45:50;19.40;99.90
18101;DHT22;9177;49.156;8.142;2022-10-01T02:48:24;19.40;99.90
18101;DHT22;9177;49.156;8.142;2022-10-01T02:50:53;19.40;99.90
18101;DHT22;9177;49.156;8.142;2022-10-01T02:53:23;19.40;99.90
18101;DHT22;9177;49.156;8.142;2022-10-01T02:55:51;19.40;99.90
18101;DHT22;9177;49.156;8.142;2022-10-01T02:58:20;19.40;99.90
18101;DHT22;9177;49.156;8.142;2022-10-01T03:00:47;19.40;99.90
18101;DHT22;9177;49.156;8.142;2022-10-01T03:03:14;19.40;99.90
18101;DHT22;9177;49.156;8.142;2022-10-01T03:05:41;19.40;99.90
18101;DHT22;9177;49.156;8.142;2022-10-01T03:08:08;19.40;99.90
18101;DHT22;9177;49.156;8.142;2022-10-01T03:10:35;19.40;99.90
18101;DHT22;9177;49.156;8.142;2022-10-01T03:13:02;19.40;99.90
18101;DHT22;9177;49.156;8.142;2022-10-01T03:15:30;19.40;99.90
18101;DHT22;9177;49.156;8.142;2022-10-01T03:17:58;19.40;99.90
18101;DHT22;9177;49.156;8.142;2022-10-01T03:20:25;19.40;99.90
18101;DHT22;9177;49.156;8.142;2022-10-01T03:22:52;19.40;99.90
18101;DHT22;9177;49.156;8.142;2022-10-01T03:25:19;19.40;99.90
18101;DHT22;9177;49.156;8.142;2022-10-01T03:27:46;19.40;99.90
18101;DHT22;9177;49.156;8.142;2022-10-01T03:30:13;19.40;99.90
18101;DHT22;9177;49.156;8.142;2022-10-01T03:32:40;19.40;99.90
18101;DHT22;9177;49.156;8.142;2022-10-01T03:35:08;19.40;99.90
18101;DHT22;9177;49.156;8.142;2022-10-01T03:37:35;19.40;99.90
18101;DHT22;9177;49.156;8.142;2022-10-01T03:40:03;19.40;99.90
18101;DHT22;9177;49.156;8.142;2022-10-01T03:42:30;19.40;99.90
18101;DHT22;9177;49.156;8.142;2022-10-01T03:44:56;19.40;99.90
18101;DHT22;9177;49.156;8.142;2022-10-01T03:47:23;19.40;99.90
18101;DHT22;9177;49.156;8.142;2022-10-01T03:49:50;19.30;99.90
18101;DHT22;9177;49.156;8.142;2022-10-01T03:52:18;19.40;99.90
18101;DHT22;9177;49.156;8.142;2022-10-01T03:54:46;19.30;99.90
18101;DHT22;9177;49.156;8.142;2022-10-01T03:57:13;19.30;99.90
18101;DHT22;9177;49.156;8.142;2022-10-01T03:59:40;19.30;99.90
18101;DHT22;9177;49.156;8.142;2022-10-01T04:02:07;19.30;99.90
18101;DHT22;9177;49.156;8.142;2022-10-01T04:04:34;19.30;99.90
18101;DHT22;9177;49.156;8.142;2022-10-01T04:07:00;19.40;99.90
18101;DHT22;9177;49.156;8.142;2022-10-01T04:09:29;19.30;99.90
18101;DHT22;9177;49.156;8.142;2022-10-01T04:11:56;19.40;99.90
18101;DHT22;9177;49.156;8.142;2022-10-01T04:14:23;19.30;99.90
18101;DHT22;9177;49.156;8.142;2022-10-01T04:16:50;19.30;99.90
18101;DHT22;9177;49.156;8.142;2022-10-01T04:19:17;19.30;99.90
18101;DHT22;9177;49.156;8.142;2022-10-01T04:21:45;19.30;99.90
18101;DHT22;9177;49.156;8.142;2022-10-01T04:24:12;19.30;99.90
18101;DHT22;9177;49.156;8.142;2022-10-01T04:26:40;19.30;99.90
18101;DHT22;9177;49.156;8.142;2022-10-01T04:29:07;19.30;99.90
18101;DHT22;9177;49.156;8.142;2022-10-01T04:31:34;19.30;99.90
18101;DHT22;9177;49.156;8.142;2022-10-01T04:34:01;19.40;99.90
18101;DHT22;9177;49.156;8.142;2022-10-01T04:36:28;19.30;99.90
18101;DHT22;9177;49.156;8.142;2022-10-01T04:38:56;19.30;99.90
18101;DHT22;9177;49.156;8.142;2022-10-01T04:41:23;19.30;99.90
18101;DHT22;9177;49.156;8.142;2022-10-01T04:43:51;19.30;99.90
18101;DHT22;9177;49.156;8.142;2022-10-01T04:46:18;19.30;99.90
18101;DHT22;9177;49.156;8.142;2022-10-01T04:48:46;19.30;99.90
18101;DHT22;9177;49.156;8.142;2022-10-01T04:51:13;19.30;99.90
18101;DHT22;9177;49.156;8.142;2022-10-01T04:53:41;19.30;99.90
18101;DHT22;9177;49.156;8.142;2022-10-01T04:56:08;19.30;99.90
18101;DHT22;9177;49.156;8.142;2022-10-01T04:58:34;19.30;99.90
18101;DHT22;9177;49.156;8.142;2022-10-01T05:01:03;19.30;99.90
18101;DHT22;9177;49.156;8.142;2022-10-01T05:03:30;19.30;99.90
18101;DHT22;9177;49.156;8.142;2022-10-01T05:05:57;19.30;99.90
18101;DHT22;9177;49.156;8.142;2022-10-01T05:08:24;19.30;99.90
18101;DHT22;9177;49.156;8.142;2022-10-01T05:10:50;19.30;99.90
18101;DHT22;9177;49.156;8.142;2022-10-01T05:13:20;19.30;99.90
18101;DHT22;9177;49.156;8.142;2022-10-01T05:15:48;19.30;99.90
18101;DHT22;9177;49.156;8.142;2022-10-01T05:18:16;19.30;99.90
18101;DHT22;9177;49.156;8.142;2022-10-01T05:20:43;19.30;99.90
18101;DHT22;9177;49.156;8.142;2022-10-01T05:23:10;19.30;99.90
18101;DHT22;9177;49.156;8.142;2022-10-01T05:25:37;19.30;99.90
18101;DHT22;9177;49.156;8.142;2022-10-01T05:28:04;19.30;99.90
18101;DHT22;9177;49.156;8.142;2022-10-01T05:30:31;19.30;99.90
18101;DHT22;9177;49.156;8.142;2022-10-01T05:32:59;19.30;99.90
18101;DHT22;9177;49.156;8.142;2022-10-01T05:35:28;19.30;99.90
18101;DHT22;9177;49.156;8.142;2022-10-01T05:37:56;19.30;99.90
18101;DHT22;9177;49.156;8.142;2022-10-01T05:40:24;19.30;99.90
18101;DHT22;9177;49.156;8.142;2022-10-01T05:42:52;19.30;99.90
18101;DHT22;9177;49.156;8.142;2022-10-01T05:45:19;19.30;99.90
18101;DHT22;9177;49.156;8.142;2022-10-01T05:47:48;19.30;99.90
18101;DHT22;9177;49.156;8.142;2022-10-01T05:50:21;19.30;99.90
18101;DHT22;9177;49.156;8.142;2022-10-01T05:52:49;19.30;99.90
18101;DHT22;9177;49.156;8.142;2022-10-01T05:55:19;19.30;99.90
18101;DHT22;9177;49.156;8.142;2022-10-01T05:57:53;19.30;99.90
18101;DHT22;9177;49.156;8.142;2022-10-01T06:00:20;19.30;99.90
18101;DHT22;9177;49.156;8.142;2022-10-01T06:02:49;19.30;99.90
18101;DHT22;9177;49.156;8.142;2022-10-01T06:05:17;19.30;99.90
18101;DHT22;9177;49.156;8.142;2022-10-01T06:07:44;19.30;99.90
18101;DHT22;9177;49.156;8.142;2022-10-01T06:10:12;19.30;99.90
18101;DHT22;9177;49.156;8.142;2022-10-01T06:12:39;19.30;99.90
18101;DHT22;9177;49.156;8.142;2022-10-01T06:15:08;19.30;99.90
18101;DHT22;9177;49.156;8.142;2022-10-01T06:17:35;19.30;99.90
18101;DHT22;9177;49.156;8.142;2022-10-01T06:20:09;19.30;99.90
18101;DHT22;9177;49.156;8.142;2022-10-01T06:22:37;19.30;99.90
18101;DHT22;9177;49.156;8.142;2022-10-01T06:25:05;19.30;99.90
18101;DHT22;9177;49.156;8.142;2022-10-01T06:27:33;19.30;99.90
18101;DHT22;9177;49.156;8.142;2022-10-01T06:30:00;19.30;99.90
18101;DHT22;9177;49.156;8.142;2022-10-01T06:32:27;19.20;99.90
18101;DHT22;9177;49.156;8.142;2022-10-01T06:34:54;19.20;99.90
18101;DHT22;9177;49.156;8.142;2022-10-01T06:37:21;19.30;99.90
18101;DHT22;9177;49.156;8.142;2022-10-01T06:39:48;19.20;99.90
18101;DHT22;9177;49.156;8.142;2022-10-01T06:42:15;19.30;99.90
18101;DHT22;9177;49.156;8.142;2022-10-01T06:44:43;19.20;99.90
18101;DHT22;9177;49.156;8.142;2022-10-01T06:47:10;19.30;99.90
18101;DHT22;9177;49.156;8.142;2022-10-01T06:49:36;19.20;99.90
18101;DHT22;9177;49.156;8.142;2022-10-01T06:52:03;19.20;99.90
18101;DHT22;9177;49.156;8.142;2022-10-01T06:54:44;19.30;99.90
18101;DHT22;9177;49.156;8.142;2022-10-01T06:57:11;19.20;99.90
18101;DHT22;9177;49.156;8.142;2022-10-01T06:59:37;19.30;99.90
18101;DHT22;9177;49.156;8.142;2022-10-01T07:02:20;19.20;99.90
18101;DHT22;9177;49.156;8.142;2022-10-01T07:04:47;19.30;99.90
18101;DHT22;9177;49.156;8.142;2022-10-01T07:07:14;19.20;99.90
18101;DHT22;9177;49.156;8.142;2022-10-01T07:09:41;19.30;99.90
18101;DHT22;9177;49.156;8.142;2022-10-01T07:12:11;19.30;99.90
18101;DHT22;9177;49.156;8.142;2022-10-01T07:14:38;19.30;99.90
18101;DHT22;9177;49.156;8.142;2022-10-01T07:17:05;19.30;99.90
18101;DHT22;9177;49.156;8.142;2022-10-01T07:19:33;19.30;99.90
18101;DHT22;9177;49.156;8.142;2022-10-01T07:22:00;19.30;99.90
18101;DHT22;9177;49.156;8.142;2022-10-01T07:24:27;19.30;99.90
18101;DHT22;9177;49.156;8.142;2022-10-01T07:26:54;19.30;99.90
18101;DHT22;9177;49.156;8.142;2022-10-01T07:29:22;19.20;99.90
18101;DHT22;9177;49.156;8.142;2022-10-01T07:31:50;19.20;99.90
18101;DHT22;9177;49.156;8.142;2022-10-01T07:34:22;19.30;99.90
18101;DHT22;9177;49.156;8.142;2022-10-01T07:36:51;19.20;99.90
18101;DHT22;9177;49.156;8.142;2022-10-01T07:39:18;19.20;99.90
18101;DHT22;9177;49.156;8.142;2022-10-01T07:41:45;19.20;99.90
18101;DHT22;9177;49.156;8.142;2022-10-01T07:44:12;19.20;99.90
18101;DHT22;9177;49.156;8.142;2022-10-01T07:46:40;19.20;99.90
18101;DHT22;9177;49.156;8.142;2022-10-01T07:49:08;19.30;99.90
18101;DHT22;9177;49.156;8.142;2022-10-01T07:51:35;19.20;99.90
18101;DHT22;9177;49.156;8.142;2022-10-01T07:54:04;19.30;99.90
18101;DHT22;9177;49.156;8.142;2022-10-01T07:56:31;19.30;99.90
18101;DHT22;9177;49.156;8.142;2022-10-01T07:58:58;19.30;99.90
18101;DHT22;9177;49.156;8.142;2022-10-01T08:01:24;19.30;99.90
18101;DHT22;9177;49.156;8.142;2022-10-01T08:03:52;19.30;99.90
18101;DHT22;9177;49.156;8.142;2022-10-01T08:06:21;19.30;99.90
18101;DHT22;9177;49.156;8.142;2022-10-01T08:08:48;19.30;99.90
18101;DHT22;9177;49.156;8.142;2022-10-01T08:11:16;19.30;99.90
18101;DHT22;9177;49.156;8.142;2022-10-01T08:13:43;19.30;99.90
18101;DHT22;9177;49.156;8.142;2022-10-01T08:16:11;19.30;99.90
18101;DHT22;9177;49.156;8.142;2022-10-01T08:18:39;19.30;99.90
18101;DHT22;9177;49.156;8.142;2022-10-01T08:21:06;19.30;99.90
18101;DHT22;9177;49.156;8.142;2022-10-01T08:23:33;19.30;99.90
18101;DHT22;9177;49.156;8.142;2022-10-01T08:26:02;19.30;99.90
18101;DHT22;9177;49.156;8.142;2022-10-01T08:28:31;19.30;99.90
18101;DHT22;9177;49.156;8.142;2022-10-01T08:31:02;19.30;99.90
18101;DHT22;9177;49.156;8.142;2022-10-01T08:33:31;19.30;99.90
18101;DHT22;9177;49.156;8.142;2022-10-01T08:36:00;19.30;99.90
18101;DHT22;9177;49.156;8.142;2022-10-01T08:38:28;19.30;99.90
18101;DHT22;9177;49.156;8.142;2022-10-01T08:40:55;19.30;99.90
18101;DHT22;9177;49.156;8.142;2022-10-01T08:43:32;19.30;99.90
18101;DHT22;9177;49.156;8.142;2022-10-01T08:46:03;19.30;99.90
18101;DHT22;9177;49.156;8.142;2022-10-01T08:48:39;19.30;99.90
18101;DHT22;9177;49.156;8.142;2022-10-01T08:51:14;19.30;99.90
18101;DHT22;9177;49.156;8.142;2022-10-01T08:53:46;19.30;99.90
18101;DHT22;9177;49.156;8.142;2022-10-01T08:56:19;19.30;99.90
18101;DHT22;9177;49.156;8.142;2022-10-01T08:58:52;19.30;99.90
18101;DHT22;9177;49.156;8.142;2022-10-01T09:01:22;19.30;99.90
18101;DHT22;9177;49.156;8.142;2022-10-01T09:03:49;19.30;99.90
18101;DHT22;9177;49.156;8.142;2022-10-01T09:06:18;19.30;99.90
18101;DHT22;9177;49.156;8.142;2022-10-01T09:09:06;19.30;99.90
18101;DHT22;9177;49.156;8.142;2022-10-01T09:11:44;19.30;99.90
18101;DHT22;9177;49.156;8.142;2022-10-01T09:14:34;19.40;99.90
18101;DHT22;9177;49.156;8.142;2022-10-01T09:17:07;19.40;99.90
18101;DHT22;9177;49.156;8.142;2022-10-01T09:19:55;19.30;99.90
18101;DHT22;9177;49.156;8.142;2022-10-01T09:22:33;19.40;99.90
18101;DHT22;9177;49.156;8.142;2022-10-01T09:25:11;19.40;99.90
18101;DHT22;9177;49.156;8.142;2022-10-01T09:27:38;19.40;99.90
18101;DHT22;9177;49.156;8.142;2022-10-01T09:30:11;19.40;99.90
18101;DHT22;9177;49.156;8.142;2022-10-01T09:32:43;19.40;99.90
18101;DHT22;9177;49.156;8.142;2022-10-01T09:35:19;19.40;99.90
18101;DHT22;9177;49.156;8.142;2022-10-01T09:37:54;19.40;99.90
18101;DHT22;9177;49.156;8.142;2022-10-01T09:40:26;19.40;99.90
18101;DHT22;9177;49.156;8.142;2022-10-01T09:42:55;19.40;99.90
18101;DHT22;9177;49.156;8.142;2022-10-01T09:45:24;19.40;99.90
18101;DHT22;9177;49.156;8.142;2022-10-01T09:48:02;19.40;99.90
18101;DHT22;9177;49.156;8.142;2022-10-01T09:50:38;19.40;99.90
18101;DHT22;9177;49.156;8.142;2022-10-01T09:53:13;19.40;99.90
18101;DHT22;9177;49.156;8.142;2022-10-01T09:55:44;19.40;99.90
18101;DHT22;9177;49.156;8.142;2022-10-01T09:58:16;19.40;99.90
18101;DHT22;9177;49.156;8.142;2022-10-01T10:00:45;19.40;99.90
18101;DHT22;9177;49.156;8.142;2022-10-01T10:03:22;19.40;99.90
18101;DHT22;9177;49.156;8.142;2022-10-01T10:05:52;19.40;99.90
18101;DHT22;9177;49.156;8.142;2022-10-01T10:08:25;19.40;99.90
18101;DHT22;9177;49.156;8.142;2022-10-01T10:10:56;19.40;99.90
18101;DHT22;9177;49.156;8.142;2022-10-01T10:13:29;19.40;99.90
18101;DHT22;9177;49.156;8.142;2022-10-01T10:16:06;19.40;99.90
18101;DHT22;9177;49.156;8.142;2022-10-01T10:18:37;19.40;99.90
18101;DHT22;9177;49.156;8.142;2022-10-01T10:21:06;19.40;99.90
18101;DHT22;9177;49.156;8.142;2022-10-01T10:23:46;19.40;99.90
18101;DHT22;9177;49.156;8.142;2022-10-01T10:26:18;19.50;99.90
18101;DHT22;9177;49.156;8.142;2022-10-01T10:28:46;19.40;99.90
18101;DHT22;9177;49.156;8.142;2022-10-01T10:31:18;19.50;99.90
18101;DHT22;9177;49.156;8.142;2022-10-01T10:33:51;19.50;99.90
18101;DHT22;9177;49.156;8.142;2022-10-01T10:36:19;19.50;99.90
18101;DHT22;9177;49.156;8.142;2022-10-01T10:38:53;19.40;99.90
18101;DHT22;9177;49.156;8.142;2022-10-01T10:41:21;19.50;99.90
18101;DHT22;9177;49.156;8.142;2022-10-01T10:43:52;19.50;99.90
18101;DHT22;9177;49.156;8.142;2022-10-01T10:46:26;19.50;99.90
18101;DHT22;9177;49.156;8.142;2022-10-01T10:49:04;19.50;99.90
18101;DHT22;9177;49.156;8.142;2022-10-01T10:51:45;19.50;99.90
18101;DHT22;9177;49.156;8.142;2022-10-01T10:54:21;19.50;99.90
18101;DHT22;9177;49.156;8.142;2022-10-01T10:56:57;19.50;99.90
18101;DHT22;9177;49.156;8.142;2022-10-01T10:59:28;19.50;99.90
18101;DHT22;9177;49.156;8.142;2022-10-01T11:01:58;19.50;99.90
18101;DHT22;9177;49.156;8.142;2022-10-01T11:04:31;19.50;99.90
18101;DHT22;9177;49.156;8.142;2022-10-01T11:07:01;19.50;99.90
18101;DHT22;9177;49.156;8.142;2022-10-01T11:09:33;19.50;99.90
18101;DHT22;9177;49.156;8.142;2022-10-01T11:12:13;19.50;99.90
18101;DHT22;9177;49.156;8.142;2022-10-01T11:14:51;19.50;99.90
18101;DHT22;9177;49.156;8.142;2022-10-01T11:20:53;19.50;99.90
18101;DHT22;9177;49.156;8.142;2022-10-01T11:23:45;19.50;99.90
18101;DHT22;9177;49.156;8.142;2022-10-01T11:26:23;19.50;99.90
18101;DHT22;9177;49.156;8.142;2022-10-01T11:29:04;19.50;99.90
18101;DHT22;9177;49.156;8.142;2022-10-01T11:31:39;19.50;99.90
18101;DHT22;9177;49.156;8.142;2022-10-01T11:37:14;19.50;99.90
18101;DHT22;9177;49.156;8.142;2022-10-01T11:39:52;19.50;99.90
18101;DHT22;9177;49.156;8.142;2022-10-01T11:42:23;19.50;99.90
18101;DHT22;9177;49.156;8.142;2022-10-01T11:44:55;19.50;99.90
18101;DHT22;9177;49.156;8.142;2022-10-01T11:47:31;19.60;99.90
18101;DHT22;9177;49.156;8.142;2022-10-01T11:50:00;19.50;99.90
18101;DHT22;9177;49.156;8.142;2022-10-01T11:52:34;19.50;99.90
18101;DHT22;9177;49.156;8.142;2022-10-01T11:55:15;19.50;99.90
18101;DHT22;9177;49.156;8.142;2022-10-01T11:58:06;19.60;99.90
18101;DHT22;9177;49.156;8.142;2022-10-01T12:01:02;19.50;99.90
18101;DHT22;9177;49.156;8.142;2022-10-01T12:03:36;19.50;99.90
18101;DHT22;9177;49.156;8.142;2022-10-01T12:06:06;19.50;99.90
18101;DHT22;9177;49.156;8.142;2022-10-01T12:08:43;19.50;99.90
18101;DHT22;9177;49.156;8.142;2022-10-01T12:11:17;19.50;99.90
18101;DHT22;9177;49.156;8.142;2022-10-01T12:13:49;19.50;99.90
18101;DHT22;9177;49.156;8.142;2022-10-01T12:16:26;19.50;99.90
18101;DHT22;9177;49.156;8.142;2022-10-01T12:18:57;19.60;99.90
18101;DHT22;9177;49.156;8.142;2022-10-01T12:21:29;19.60;99.90
18101;DHT22;9177;49.156;8.142;2022-10-01T12:24:03;19.60;99.90
18101;DHT22;9177;49.156;8.142;2022-10-01T12:26:40;19.60;99.90
18101;DHT22;9177;49.156;8.142;2022-10-01T12:29:13;19.60;99.90
18101;DHT22;9177;49.156;8.142;2022-10-01T12:31:48;19.60;99.90
18101;DHT22;9177;49.156;8.142;2022-10-01T12:34:21;19.60;99.90
18101;DHT22;9177;49.156;8.142;2022-10-01T12:36:58;19.60;99.90
18101;DHT22;9177;49.156;8.142;2022-10-01T12:39:42;19.60;99.90
18101;DHT22;9177;49.156;8.142;2022-10-01T12:42:31;19.60;99.90
18101;DHT22;9177;49.156;8.142;2022-10-01T12:45:09;19.60;99.90
18101;DHT22;9177;49.156;8.142;2022-10-01T12:47:45;19.60;99.90
18101;DHT22;9177;49.156;8.142;2022-10-01T12:50:21;19.60;99.90
18101;DHT22;9177;49.156;8.142;2022-10-01T12:53:04;19.60;99.90
18101;DHT22;9177;49.156;8.142;2022-10-01T12:55:53;19.60;99.90
18101;DHT22;9177;49.156;8.142;2022-10-01T12:58:56;19.60;99.90
18101;DHT22;9177;49.156;8.142;2022-10-01T13:01:46;19.60;99.90
18101;DHT22;9177;49.156;8.142;2022-10-01T13:04:43;19.60;99.90
18101;DHT22;9177;49.156;8.142;2022-10-01T13:07:33;19.60;99.90
18101;DHT22;9177;49.156;8.142;2022-10-01T13:10:11;19.60;99.90
18101;DHT22;9177;49.156;8.142;2022-10-01T13:12:58;19.60;99.90
18101;DHT22;9177;49.156;8.142;2022-10-01T13:15:28;19.60;99.90
18101;DHT22;9177;49.156;8.142;2022-10-01T13:18:03;19.60;99.90
18101;DHT22;9177;49.156;8.142;2022-10-01T13:20:36;19.60;99.90
18101;DHT22;9177;49.156;8.142;2022-10-01T13:23:14;19.60;99.90
18101;DHT22;9177;49.156;8.142;2022-10-01T13:25:46;19.70;99.90
18101;DHT22;9177;49.156;8.142;2022-10-01T13:28:22;19.70;99.90
18101;DHT22;9177;49.156;8.142;2022-10-01T13:30:56;19.70;99.90
18101;DHT22;9177;49.156;8.142;2022-10-01T13:33:26;19.70;99.90
18101;DHT22;9177;49.156;8.142;2022-10-01T13:35:56;19.70;99.90
18101;DHT22;9177;49.156;8.142;2022-10-01T13:38:29;19.70;99.90
18101;DHT22;9177;49.156;8.142;2022-10-01T13:40:57;19.70;99.90
18101;DHT22;9177;49.156;8.142;2022-10-01T13:43:27;19.80;99.90
18101;DHT22;9177;49.156;8.142;2022-10-01T13:46:04;20.00;99.90
18101;DHT22;9177;49.156;8.142;2022-10-01T13:48:33;20.10;99.90
18101;DHT22;9177;49.156;8.142;2022-10-01T13:51:06;20.10;99.90
18101;DHT22;9177;49.156;8.142;2022-10-01T13:53:46;20.10;99.90
18101;DHT22;9177;49.156;8.142;2022-10-01T13:56:26;20.10;99.90
18101;DHT22;9177;49.156;8.142;2022-10-01T13:58:56;20.00;99.90
18101;DHT22;9177;49.156;8.142;2022-10-01T14:01:28;20.00;99.90
18101;DHT22;9177;49.156;8.142;2022-10-01T14:04:00;19.90;99.90
18101;DHT22;9177;49.156;8.142;2022-10-01T14:06:36;19.90;99.90
18101;DHT22;9177;49.156;8.142;2022-10-01T14:09:15;19.90;99.90
18101;DHT22;9177;49.156;8.142;2022-10-01T14:11:48;19.90;99.90
18101;DHT22;9177;49.156;8.142;2022-10-01T14:14:37;19.90;99.90
18101;DHT22;9177;49.156;8.142;2022-10-01T14:17:25;19.90;99.90
18101;DHT22;9177;49.156;8.142;2022-10-01T14:19:53;19.90;99.90
18101;DHT22;9177;49.156;8.142;2022-10-01T14:22:34;19.80;99.90
18101;DHT22;9177;49.156;8.142;2022-10-01T14:25:21;19.80;99.90
18101;DHT22;9177;49.156;8.142;2022-10-01T14:28:03;19.80;99.90
18101;DHT22;9177;49.156;8.142;2022-10-01T14:30:38;19.80;99.90
18101;DHT22;9177;49.156;8.142;2022-10-01T14:33:17;19.80;99.90
18101;DHT22;9177;49.156;8.142;2022-10-01T14:35:52;19.70;99.90
18101;DHT22;9177;49.156;8.142;2022-10-01T14:38:21;19.70;99.90
18101;DHT22;9177;49.156;8.142;2022-10-01T14:40:49;19.70;99.90
18101;DHT22;9177;49.156;8.142;2022-10-01T14:43:19;19.70;99.90
18101;DHT22;9177;49.156;8.142;2022-10-01T14:45:52;19.70;99.90
18101;DHT22;9177;49.156;8.142;2022-10-01T14:48:19;19.80;99.90
18101;DHT22;9177;49.156;8.142;2022-10-01T14:50:49;19.80;99.90
18101;DHT22;9177;49.156;8.142;2022-10-01T14:53:18;19.80;99.90
18101;DHT22;9177;49.156;8.142;2022-10-01T14:55:46;19.80;99.90
18101;DHT22;9177;49.156;8.142;2022-10-01T14:58:20;19.80;99.90
18101;DHT22;9177;49.156;8.142;2022-10-01T15:00:53;19.80;99.90
18101;DHT22;9177;49.156;8.142;2022-10-01T15:03:20;19.80;99.90
18101;DHT22;9177;49.156;8.142;2022-10-01T15:05:48;19.80;99.90
18101;DHT22;9177;49.156;8.142;2022-10-01T15:08:18;19.80;99.90
18101;DHT22;9177;49.156;8.142;2022-10-01T15:10:48;19.70;99.90
18101;DHT22;9177;49.156;8.142;2022-10-01T15:13:19;19.70;99.90
18101;DHT22;9177;49.156;8.142;2022-10-01T15:15:46;19.70;99.90
18101;DHT22;9177;49.156;8.142;2022-10-01T15:18:16;19.70;99.90
18101;DHT22;9177;49.156;8.142;2022-10-01T15:20:51;19.70;99.90
18101;DHT22;9177;49.156;8.142;2022-10-01T15:23:20;19.70;99.90
18101;DHT22;9177;49.156;8.142;2022-10-01T15:25:47;19.70;99.90
18101;DHT22;9177;49.156;8.142;2022-10-01T15:28:19;19.70;99.90
18101;DHT22;9177;49.156;8.142;2022-10-01T15:30:49;19.60;99.90
18101;DHT22;9177;49.156;8.142;2022-10-01T15:33:24;19.60;99.90
18101;DHT22;9177;49.156;8.142;2022-10-01T15:35:54;19.60;99.90
18101;DHT22;9177;49.156;8.142;2022-10-01T15:38:22;19.60;99.90
18101;DHT22;9177;49.156;8.142;2022-10-01T15:40:51;19.60;99.90
18101;DHT22;9177;49.156;8.142;2022-10-01T15:43:25;19.60;99.90
18101;DHT22;9177;49.156;8.142;2022-10-01T15:46:24;19.60;99.90
18101;DHT22;9177;49.156;8.142;2022-10-01T15:51:56;19.60;99.90
18101;DHT22;9177;49.156;8.142;2022-10-01T15:54:43;19.50;99.90
18101;DHT22;9177;49.156;8.142;2022-10-01T15:57:15;19.50;99.90
18101;DHT22;9177;49.156;8.142;2022-10-01T15:59:45;19.50;99.90
18101;DHT22;9177;49.156;8.142;2022-10-01T16:02:17;19.50;99.90
18101;DHT22;9177;49.156;8.142;2022-10-01T16:04:46;19.60;99.90
18101;DHT22;9177;49.156;8.142;2022-10-01T16:07:20;19.50;99.90
18101;DHT22;9177;49.156;8.142;2022-10-01T16:09:53;19.50;99.90
18101;DHT22;9177;49.156;8.142;2022-10-01T16:12:22;19.50;99.90
18101;DHT22;9177;49.156;8.142;2022-10-01T16:15:00;19.50;99.90
18101;DHT22;9177;49.156;8.142;2022-10-01T16:17:31;19.50;99.90
18101;DHT22;9177;49.156;8.142;2022-10-01T16:20:00;19.50;99.90
18101;DHT22;9177;49.156;8.142;2022-10-01T16:22:30;19.50;99.90
18101;DHT22;9177;49.156;8.142;2022-10-01T16:24:59;19.50;99.90